Time;durP1;ratioP1;P1;durP2;ratioP2;P2;SDS_P1;SDS_P2;PMS_P1;PMS_P2;Temp;Humidity;BMP_temperature;BMP_pressure;BME280_temperature;BME280_humidity;BME280_pressure;Samples;Min_cycle;Max_cycle;Signal;HPM_P1;HPM_P2
2022/04/20 00:02:19;;;;;;;0.30;0.20;;;;;;;9.43;60.85;100057.19;5033307;28;20545;-55
2022/04/20 00:04:45;;;;;;;0.30;0.20;;;;;;;9.55;60.90;100045.34;5033226;28;21022;-55
2022/04/20 00:07:12;;;;;;;0.83;0.83;;;;;;;9.53;60.28;100052.50;5033514;28;20447;-56
2022/04/20 00:09:39;;;;;;;0.30;0.20;;;;;;;9.64;59.73;100055.72;5033532;28;20501;-56
2022/04/20 00:12:06;;;;;;;0.30;0.20;;;;;;;9.71;59.60;100051.97;5034051;28;20479;-56
2022/04/20 00:14:33;;;;;;;0.30;0.20;;;;;;;9.74;59.52;100057.19;5034252;28;20451;-56
2022/04/20 00:16:59;;;;;;;0.30;0.20;;;;;;;9.75;59.16;100047.44;5015821;28;20478;-56
2022/04/20 00:19:26;;;;;;;0.30;0.20;;;;;;;9.62;60.00;100054.91;5029638;28;20444;-55
2022/04/20 00:21:52;;;;;;;0.30;0.20;;;;;;;9.56;60.05;100052.41;5029024;28;20999;-56
2022/04/20 00:24:19;;;;;;;0.30;0.20;;;;;;;9.42;60.62;100051.91;5030965;28;20513;-55
2022/04/20 00:26:46;;;;;;;0.30;0.20;;;;;;;9.40;61.27;100043.13;5029381;28;20456;-56
2022/04/20 00:29:12;;;;;;;0.30;0.20;;;;;;;9.44;61.33;100058.03;5019688;28;20447;-55
2022/04/20 00:31:39;;;;;;;0.30;0.20;;;;;;;9.32;61.84;100048.66;5036886;28;20455;-56
2022/04/20 00:34:06;;;;;;;0.30;0.20;;;;;;;9.44;62.16;100053.59;5033354;28;20452;-56
2022/04/20 00:36:32;;;;;;;0.30;0.20;;;;;;;9.15;63.09;100051.75;5036455;28;20494;-56
2022/04/20 00:38:59;;;;;;;0.30;0.20;;;;;;;9.03;63.89;100057.38;5036552;28;20466;-56
2022/04/20 00:41:26;;;;;;;0.30;0.20;;;;;;;8.92;64.66;100055.94;5036614;28;20491;-55
2022/04/20 00:43:54;;;;;;;0.30;0.20;;;;;;;9.05;63.78;100052.94;5036232;28;20455;-56
2022/04/20 00:46:23;;;;;;;0.30;0.20;;;;;;;9.00;63.92;100049.50;5036470;28;20510;-55
2022/04/20 00:48:51;;;;;;;0.93;0.93;;;;;;;8.79;64.39;100042.13;5036028;28;20516;-55
2022/04/20 00:51:19;;;;;;;0.30;0.20;;;;;;;8.82;64.09;100053.50;5035916;28;20471;-56
2022/04/20 00:53:46;;;;;;;0.40;0.30;;;;;;;8.79;64.62;100048.28;5035352;28;20443;-55
2022/04/20 00:56:13;;;;;;;0.30;0.20;;;;;;;8.76;64.61;100050.13;5036422;28;20498;-56
2022/04/20 00:58:41;;;;;;;0.30;0.20;;;;;;;8.75;64.37;100051.91;5036604;28;20452;-55
2022/04/20 01:01:08;;;;;;;0.30;0.20;;;;;;;8.75;65.23;100057.22;5031787;28;20513;-55
2022/04/20 01:03:36;;;;;;;0.53;0.53;;;;;;;8.68;65.17;100062.72;5036290;28;20478;-56
2022/04/20 01:06:02;;;;;;;0.30;0.20;;;;;;;8.68;65.06;100050.34;5035818;28;20443;-56
2022/04/20 01:08:29;;;;;;;0.53;0.53;;;;;;;8.55;66.30;100049.75;5036275;28;20810;-56
2022/04/20 01:10:56;;;;;;;0.30;0.20;;;;;;;8.48;66.86;100053.44;5036341;28;20543;-56
2022/04/20 01:13:24;;;;;;;0.30;0.20;;;;;;;8.28;67.80;100060.97;5036277;28;20440;-56
2022/04/20 01:15:50;;;;;;;0.30;0.20;;;;;;;8.23;67.88;100041.69;5035882;28;20448;-55
2022/04/20 01:18:17;;;;;;;1.40;1.30;;;;;;;8.20;68.63;100054.97;5035758;28;20822;-55
2022/04/20 01:20:44;;;;;;;0.30;0.20;;;;;;;8.37;67.92;100052.00;5034502;28;20464;-56
2022/04/20 01:23:11;;;;;;;0.30;0.20;;;;;;;8.36;67.72;100042.28;5034493;28;20529;-56
2022/04/20 01:25:38;;;;;;;0.30;0.20;;;;;;;8.03;69.23;100050.94;5035909;28;20475;-55
2022/04/20 01:28:06;;;;;;;0.30;0.20;;;;;;;8.20;68.59;100055.84;5033889;28;20949;-55
2022/04/20 01:30:35;;;;;;;0.30;0.20;;;;;;;8.30;67.86;100056.50;5035093;28;20470;-56
2022/04/20 01:33:02;;;;;;;0.30;0.20;;;;;;;8.21;68.19;100059.34;5035397;28;20451;-56
2022/04/20 01:35:28;;;;;;;0.60;0.60;;;;;;;8.14;68.27;100052.47;5035750;28;20444;-55
2022/04/20 01:37:55;;;;;;;0.40;0.40;;;;;;;8.05;69.58;100055.31;5035850;28;20448;-55
2022/04/20 01:40:22;;;;;;;0.30;0.20;;;;;;;8.06;69.75;100065.00;5035397;28;20472;-56
2022/04/20 01:42:49;;;;;;;0.30;0.20;;;;;;;7.78;69.78;100055.00;5035114;28;21011;-56
2022/04/20 01:45:15;;;;;;;0.30;0.20;;;;;;;7.65;70.28;100054.38;5035304;28;20444;-56
2022/04/20 01:47:42;;;;;;;0.30;0.20;;;;;;;7.73;71.00;100051.59;5034942;28;20854;-56
2022/04/20 01:50:09;;;;;;;0.73;0.73;;;;;;;7.75;70.70;100041.84;5035242;28;20460;-55
2022/04/20 01:52:35;;;;;;;0.30;0.20;;;;;;;7.79;69.64;100045.28;5035265;28;20448;-56
2022/04/20 01:55:02;;;;;;;0.30;0.20;;;;;;;7.87;69.61;100049.53;5034609;28;20913;-56
2022/04/20 01:57:29;;;;;;;0.30;0.20;;;;;;;7.74;69.68;100053.34;5034735;28;20521;-56
2022/04/20 01:59:56;;;;;;;0.30;0.20;;;;;;;7.73;69.81;100056.88;5035333;28;20467;-56
2022/04/20 02:02:34;;;;;;;0.30;0.20;;;;;;;7.63;71.05;100056.19;5034284;28;20522;-56
2022/04/20 02:05:04;;;;;;;0.30;0.20;;;;;;;7.50;71.63;100049.41;5034745;28;20451;-56
2022/04/20 02:07:31;;;;;;;0.30;0.20;;;;;;;7.65;70.28;100054.38;5035546;28;20964;-55
2022/04/20 02:09:58;;;;;;;0.30;0.20;;;;;;;7.64;70.40;100046.47;5035063;28;20452;-56
2022/04/20 02:12:25;;;;;;;0.30;0.20;;;;;;;7.76;69.97;100053.31;5034595;28;20444;-55
2022/04/20 02:14:51;;;;;;;0.30;0.20;;;;;;;7.59;71.62;100043.06;5034860;28;20443;-55
2022/04/20 02:17:19;;;;;;;0.30;0.20;;;;;;;7.49;71.27;100052.09;5035524;28;20444;-56
2022/04/20 02:19:45;;;;;;;6.03;1.20;;;;;;;7.50;71.02;100054.69;5033662;28;20454;-55
2022/04/20 02:22:12;;;;;;;0.30;0.20;;;;;;;7.52;71.02;100050.25;5034577;28;20512;-56
2022/04/20 02:24:39;;;;;;;0.30;0.20;;;;;;;7.46;71.65;100053.03;5017303;28;20447;-56
2022/04/20 02:27:06;;;;;;;0.30;0.20;;;;;;;7.42;71.78;100054.00;5032762;28;20455;-56
2022/04/20 02:29:32;;;;;;;0.30;0.20;;;;;;;7.47;71.65;100054.75;5034785;28;20439;-56
2022/04/20 02:31:59;;;;;;;0.30;0.20;;;;;;;7.59;71.42;100051.88;5034765;28;20467;-55
2022/04/20 02:34:26;;;;;;;0.30;0.20;;;;;;;7.49;71.53;100058.25;5034883;28;20440;-55
2022/04/20 02:36:52;;;;;;;0.30;0.20;;;;;;;7.28;72.24;100059.56;5034886;28;20444;-55
2022/04/20 02:39:19;;;;;;;0.30;0.20;;;;;;;7.15;73.21;100060.69;5034506;28;20567;-55
2022/04/20 02:41:47;;;;;;;0.30;0.20;;;;;;;7.18;72.84;100062.38;5033838;28;20972;-55
2022/04/20 02:44:14;;;;;;;0.30;0.20;;;;;;;6.97;73.67;100059.22;5034118;28;20456;-55
2022/04/20 02:46:42;;;;;;;0.30;0.20;;;;;;;7.04;74.32;100060.00;5034633;28;20873;-55
2022/04/20 02:49:09;;;;;;;0.30;0.20;;;;;;;7.03;74.51;100069.69;5030109;28;20440;-55
2022/04/20 02:51:35;;;;;;;0.30;0.20;;;;;;;7.00;75.00;100075.03;5034537;28;20487;-55
2022/04/20 02:54:02;;;;;;;0.30;0.20;;;;;;;7.13;74.10;100071.28;5033581;28;20874;-55
2022/04/20 02:56:28;;;;;;;0.30;0.20;;;;;;;6.93;74.07;100064.59;5034313;28;20444;-55
2022/04/20 02:58:55;;;;;;;0.30;0.20;;;;;;;6.94;74.79;100061.91;5033951;28;21023;-55
2022/04/20 03:01:22;;;;;;;0.30;0.20;;;;;;;7.02;74.46;100067.09;5034121;28;20463;-56
2022/04/20 03:03:48;;;;;;;0.30;0.20;;;;;;;7.10;73.74;100066.03;5034209;28;21147;-56
2022/04/20 03:06:15;;;;;;;0.30;0.20;;;;;;;7.16;73.36;100065.06;5033987;28;20957;-55
2022/04/20 03:08:44;;;;;;;0.30;0.20;;;;;;;7.04;73.46;100065.28;5033793;28;20953;-55
2022/04/20 03:11:10;;;;;;;0.30;0.20;;;;;;;7.01;74.02;100062.69;5033809;28;20468;-55
2022/04/20 03:13:37;;;;;;;0.30;0.20;;;;;;;6.94;74.64;100061.91;5033993;28;20435;-55
2022/04/20 03:16:04;;;;;;;0.30;0.20;;;;;;;7.00;74.44;100063.59;5034086;28;20474;-55
2022/04/20 03:18:32;;;;;;;1.07;0.77;;;;;;;6.92;74.64;100061.06;5034109;28;20807;-56
2022/04/20 03:21:01;;;;;;;0.30;0.20;;;;;;;6.96;75.21;100061.88;5032895;28;20459;-55
2022/04/20 03:23:28;;;;;;;0.30;0.20;;;;;;;6.69;75.05;100064.09;5028369;28;20476;-55
2022/04/20 03:25:55;;;;;;;0.30;0.20;;;;;;;6.59;76.57;100072.22;5032593;28;20444;-55
2022/04/20 03:28:22;;;;;;;0.30;0.20;;;;;;;6.68;75.99;100074.69;5033455;28;20451;-55
2022/04/20 03:30:48;;;;;;;0.30;0.20;;;;;;;6.57;76.73;100080.13;5033866;28;20475;-55
2022/04/20 03:33:15;;;;;;;0.30;0.20;;;;;;;6.53;77.33;100075.81;5034002;28;20440;-55
2022/04/20 03:35:43;;;;;;;0.30;0.20;;;;;;;6.40;77.20;100080.41;5033709;28;20451;-56
2022/04/20 03:38:10;;;;;;;0.30;0.20;;;;;;;6.40;77.84;100082.16;5033524;28;20447;-55
2022/04/20 03:40:37;;;;;;;0.30;0.20;;;;;;;6.48;77.34;100082.94;5033871;28;20460;-55
2022/04/20 03:43:08;;;;;;;0.30;0.20;;;;;;;6.63;76.42;100085.34;5033710;28;20495;-53
2022/04/20 03:45:34;;;;;;;0.30;0.20;;;;;;;6.46;76.73;100088.25;5034450;28;20440;-53
2022/04/20 03:48:01;;;;;;;0.30;0.20;;;;;;;6.35;78.23;100081.38;5034700;28;20458;-53
2022/04/20 03:50:28;;;;;;;0.40;0.40;;;;;;;6.36;77.73;100085.75;5033017;28;20475;-53
2022/04/20 03:52:55;;;;;;;0.30;0.20;;;;;;;6.38;77.87;100083.97;5034793;28;20432;-53
2022/04/20 03:55:21;;;;;;;0.30;0.20;;;;;;;6.37;77.87;100087.50;5036858;28;20505;-53
2022/04/20 03:57:48;;;;;;;0.30;0.10;;;;;;;6.29;78.79;100084.97;5033278;28;20447;-53
2022/04/20 04:00:15;;;;;;;0.30;0.20;;;;;;;6.35;78.07;100091.94;5038557;28;20463;-53
2022/04/20 04:02:41;;;;;;;0.93;0.93;;;;;;;6.34;77.78;100096.34;5038550;28;20483;-54
2022/04/20 04:05:08;;;;;;;0.40;0.37;;;;;;;6.41;78.06;100090.06;5037949;28;20443;-53
2022/04/20 04:07:37;;;;;;;0.30;0.20;;;;;;;6.43;77.11;100092.69;5020404;28;20436;-55
2022/04/20 04:10:06;;;;;;;0.30;0.20;;;;;;;6.46;76.93;100096.16;5037904;28;20447;-56
2022/04/20 04:12:34;;;;;;;0.30;0.20;;;;;;;6.30;77.72;100093.75;5037587;28;20435;-55
2022/04/20 04:15:00;;;;;;;0.73;0.70;;;;;;;6.39;77.24;100089.22;5037844;28;20497;-55
2022/04/20 04:17:27;;;;;;;0.30;0.20;;;;;;;6.36;77.63;100094.56;5032525;28;20502;-55
2022/04/20 04:19:54;;;;;;;0.30;0.20;;;;;;;6.20;77.91;100091.25;5036533;28;20447;-55
2022/04/20 04:22:21;;;;;;;0.30;0.20;;;;;;;6.20;78.05;100086.00;5037878;28;20510;-55
2022/04/20 04:24:48;;;;;;;0.30;0.20;;;;;;;6.55;76.62;100081.94;5032668;28;20444;-55
2022/04/20 04:27:15;;;;;;;0.30;0.20;;;;;;;6.42;77.07;100088.28;5035428;28;20463;-55
2022/04/20 04:29:41;;;;;;;0.30;0.20;;;;;;;6.42;77.42;100096.22;5037286;28;20518;-56
2022/04/20 04:32:08;;;;;;;0.30;0.20;;;;;;;6.40;77.04;100092.72;5032076;28;20468;-55
2022/04/20 04:34:35;;;;;;;0.30;0.20;;;;;;;6.38;77.10;100094.53;5037671;28;20565;-56
2022/04/20 04:37:02;;;;;;;0.30;0.20;;;;;;;6.41;76.71;100094.47;5037540;28;21316;-55
2022/04/20 04:39:28;;;;;;;0.30;0.20;;;;;;;6.42;76.44;100099.72;5037894;28;20443;-56
2022/04/20 04:42:02;;;;;;;0.30;0.20;;;;;;;6.46;76.46;100092.66;5037449;28;20463;-55
2022/04/20 04:44:32;;;;;;;0.40;0.30;;;;;;;6.48;76.87;100097.00;5032311;28;20467;-55
2022/04/20 04:49:43;;;;;;;0.30;0.20;;;;;;;6.48;77.00;100101.41;5036616;28;20436;-55
2022/04/20 04:52:13;;;;;;;0.30;0.20;;;;;;;6.49;76.43;100103.16;5037067;28;20467;-55
2022/04/20 04:54:40;;;;;;;0.30;0.20;;;;;;;6.50;77.16;100110.19;5037007;28;20440;-55
2022/04/20 04:57:07;;;;;;;0.30;0.20;;;;;;;6.50;76.50;100107.56;5037351;28;20478;-55
2022/04/20 04:59:41;;;;;;;0.30;0.20;;;;;;;6.65;75.44;100109.94;5019729;28;20515;-55
2022/04/20 05:02:09;;;;;;;0.30;0.20;;;;;;;6.66;75.86;100111.69;5032007;28;20464;-56
2022/04/20 05:04:37;;;;;;;0.30;0.20;;;;;;;6.65;75.87;100101.16;5037195;28;20770;-55
2022/04/20 05:07:04;;;;;;;0.30;0.20;;;;;;;6.63;76.31;100102.94;5036595;28;20451;-55
2022/04/20 05:09:31;;;;;;;0.30;0.20;;;;;;;6.84;75.35;100106.09;5037591;28;21019;-55
2022/04/20 05:11:58;;;;;;;0.30;0.20;;;;;;;7.19;74.24;100104.66;5037356;28;20479;-55
2022/04/20 05:14:25;;;;;;;0.30;0.20;;;;;;;7.50;72.90;100101.44;5037874;28;20459;-55
2022/04/20 05:16:52;;;;;;;0.30;0.10;;;;;;;7.90;71.02;100107.66;5036617;28;20443;-55
2022/04/20 05:19:19;;;;;;;0.30;0.20;;;;;;;8.34;69.47;100105.88;5035616;28;20436;-55
2022/04/20 05:21:45;;;;;;;0.30;0.20;;;;;;;8.65;68.52;100099.88;5035601;28;20468;-56
2022/04/20 05:24:12;;;;;;;0.30;0.20;;;;;;;9.03;66.69;100096.28;5033318;28;20492;-56
2022/04/20 05:26:40;;;;;;;0.30;0.20;;;;;;;9.62;64.65;100100.00;5034559;28;20517;-56
2022/04/20 05:29:07;;;;;;;0.30;0.20;;;;;;;10.17;62.31;100105.50;5035456;28;20451;-55
2022/04/20 05:31:33;;;;;;;0.30;0.20;;;;;;;9.92;61.98;100100.91;5034588;28;20463;-55
2022/04/20 05:34:02;;;;;;;0.30;0.20;;;;;;;10.16;62.26;100102.00;5029415;28;20793;-56
2022/04/20 05:41:39;;;;;;;0.30;0.20;;;;;;;10.57;60.75;100110.50;5033971;28;20495;-55
2022/04/20 05:42:03;;;;;;;0.30;0.20;;;;;;;10.44;60.77;100103.84;5028909;28;20463;-55
2022/04/20 05:44:29;;;;;;;0.30;0.20;;;;;;;10.06;61.50;100111.13;5034858;28;20483;-56
2022/04/20 05:46:56;;;;;;;0.30;0.20;;;;;;;10.46;60.54;100104.66;5034535;28;20908;-55
2022/04/20 05:49:23;;;;;;;0.30;0.20;;;;;;;10.53;60.14;100109.72;5034250;28;20806;-56
2022/04/20 05:51:50;;;;;;;0.80;0.80;;;;;;;10.55;59.72;100110.56;5033603;28;20541;-55
2022/04/20 05:54:16;;;;;;;0.30;0.20;;;;;;;10.54;60.28;100105.28;5024794;28;20445;-55
2022/04/20 05:56:43;;;;;;;0.50;0.30;;;;;;;10.46;59.90;100107.31;5032929;28;20436;-55
2022/04/20 05:59:10;;;;;;;0.30;0.20;;;;;;;10.62;60.10;100096.16;5017057;28;20598;-55
2022/04/20 06:01:37;;;;;;;0.30;0.20;;;;;;;10.26;61.31;100114.09;5034137;28;20459;-55
2022/04/20 06:04:04;;;;;;;0.30;0.20;;;;;;;10.19;62.06;100109.84;5034571;28;20511;-55
2022/04/20 06:06:31;;;;;;;0.30;0.20;;;;;;;10.02;62.74;100109.50;5034233;28;20442;-55
2022/04/20 06:08:57;;;;;;;0.30;0.20;;;;;;;9.82;62.99;100125.97;5034842;28;20859;-55
2022/04/20 06:11:24;;;;;;;0.30;0.20;;;;;;;9.88;62.34;100114.34;5001658;28;20501;-55
2022/04/20 06:13:51;;;;;;;0.30;0.20;;;;;;;9.99;62.89;100122.84;5026934;28;20451;-55
2022/04/20 06:16:18;;;;;;;0.30;0.20;;;;;;;9.84;63.38;100117.97;5034781;28;20459;-55
2022/04/20 06:18:44;;;;;;;0.30;0.20;;;;;;;9.97;63.16;100119.38;5034746;28;20451;-55
2022/04/20 06:21:11;;;;;;;0.30;0.20;;;;;;;9.81;62.97;100121.59;5022131;28;20475;-56
2022/04/20 06:23:38;;;;;;;0.30;0.20;;;;;;;9.87;63.12;100131.16;5028635;28;20492;-55
2022/04/20 06:26:05;;;;;;;0.30;0.20;;;;;;;9.83;63.16;100129.50;5011659;28;21016;-55
2022/04/20 06:28:32;;;;;;;0.80;0.43;;;;;;;9.85;63.38;100125.03;5028020;28;20444;-55
2022/04/20 06:30:59;;;;;;;0.40;0.30;;;;;;;9.95;63.64;100126.50;5034792;28;20491;-55
2022/04/20 06:33:26;;;;;;;0.40;0.30;;;;;;;10.05;62.77;100128.00;5016757;28;20451;-55
2022/04/20 06:35:53;;;;;;;0.30;0.20;;;;;;;9.98;62.76;100134.38;5008576;28;20458;-56
2022/04/20 06:38:21;;;;;;;0.30;0.20;;;;;;;9.78;62.37;100127.00;5034587;28;20454;-56
2022/04/20 06:40:48;;;;;;;0.30;0.20;;;;;;;9.93;62.97;100131.00;5034013;28;20894;-56
2022/04/20 06:43:14;;;;;;;0.30;0.20;;;;;;;10.12;63.32;100126.00;5034294;28;20491;-56
2022/04/20 06:45:41;;;;;;;0.30;0.20;;;;;;;9.84;62.50;100125.94;5033909;28;20510;-56
2022/04/20 06:48:08;;;;;;;0.30;0.20;;;;;;;9.91;63.26;100114.25;5034266;28;20451;-57
2022/04/20 06:50:36;;;;;;;0.30;0.20;;;;;;;10.27;62.97;100122.94;5015301;28;20553;-57
2022/04/20 06:58:38;;;;;;;0.30;0.20;;;;;;;10.15;62.52;100129.47;5034376;28;20509;-56
2022/04/20 07:01:06;;;;;;;0.57;0.57;;;;;;;9.92;62.97;100130.13;5021371;28;20484;-56
2022/04/20 07:03:35;;;;;;;0.30;0.20;;;;;;;10.21;63.21;100120.44;5033770;28;20487;-56
2022/04/20 07:06:04;;;;;;;3.63;2.67;;;;;;;10.28;62.18;100125.56;5033951;28;20523;-56
2022/04/20 07:08:32;;;;;;;0.30;0.20;;;;;;;10.42;61.58;100129.59;5033597;28;20471;-56
2022/04/20 07:10:59;;;;;;;0.50;0.50;;;;;;;10.36;62.95;100131.50;5033647;28;20980;-56
2022/04/20 07:13:26;;;;;;;0.30;0.20;;;;;;;10.23;61.97;100131.91;5033931;28;20837;-56
2022/04/20 07:15:53;;;;;;;0.40;0.40;;;;;;;10.42;61.00;100137.56;5033644;28;20498;-56
2022/04/20 07:18:20;;;;;;;0.30;0.20;;;;;;;10.49;60.28;100132.00;5034215;28;20501;-56
2022/04/20 07:20:47;;;;;;;0.30;0.20;;;;;;;10.71;60.97;100132.22;5031852;28;20456;-56
2022/04/20 07:23:13;;;;;;;0.40;0.30;;;;;;;10.93;61.48;100135.91;5032105;28;20488;-56
2022/04/20 07:25:40;;;;;;;0.50;0.50;;;;;;;10.87;58.67;100130.78;5029983;28;20513;-56
2022/04/20 07:28:08;;;;;;;0.30;0.20;;;;;;;10.82;58.14;100132.72;5024082;28;20522;-56
2022/04/20 07:30:35;;;;;;;2.20;1.13;;;;;;;11.02;58.62;100139.19;5036675;28;20476;-56
2022/04/20 07:33:04;;;;;;;10.77;1.10;;;;;;;10.64;57.89;100142.16;5038381;28;20818;-56
2022/04/20 07:35:31;;;;;;;0.40;0.30;;;;;;;10.75;58.27;100141.81;5037452;28;20448;-56
2022/04/20 07:37:57;;;;;;;0.30;0.20;;;;;;;10.96;57.44;100133.16;5037313;28;20482;-56
2022/04/20 07:40:24;;;;;;;0.30;0.20;;;;;;;11.13;57.95;100139.72;5037706;28;20991;-56
2022/04/20 07:42:54;;;;;;;0.30;0.20;;;;;;;11.16;55.82;100139.59;5037661;28;20479;-55
2022/04/20 07:45:25;;;;;;;0.30;0.20;;;;;;;11.30;55.97;100152.44;5037601;28;20447;-55
2022/04/20 07:47:54;;;;;;;0.30;0.20;;;;;;;11.01;56.05;100145.44;5037468;28;20474;-55
2022/04/20 07:50:23;;;;;;;0.30;0.20;;;;;;;11.34;57.09;100157.59;5037877;28;20522;-55
2022/04/20 07:53:05;;;;;;;0.30;0.20;;;;;;;11.50;55.38;100153.50;5037520;28;20506;-58
2022/04/20 07:55:34;;;;;;;0.30;0.20;;;;;;;11.27;55.00;100158.75;5037463;28;20505;-55
2022/04/20 07:58:03;;;;;;;0.30;0.20;;;;;;;11.58;55.94;100154.09;5037653;28;20448;-55
2022/04/20 08:00:30;;;;;;;0.60;0.60;;;;;;;11.51;54.40;100152.59;5036803;28;20463;-56
2022/04/20 08:03:14;;;;;;;0.30;0.20;;;;;;;11.60;54.53;100154.06;5037436;28;20459;-56
2022/04/20 08:05:41;;;;;;;0.30;0.20;;;;;;;11.68;54.21;100154.66;5037653;28;20508;-56
2022/04/20 08:08:09;;;;;;;0.30;0.20;;;;;;;11.44;54.01;100163.50;5037664;28;20447;-56
2022/04/20 08:10:37;;;;;;;0.30;0.20;;;;;;;11.51;53.66;100152.59;5037266;28;20467;-54
2022/04/20 08:14:09;;;;;;;0.30;0.20;;;;;;;11.61;54.07;100145.13;5036947;28;20463;-56
2022/04/20 08:15:50;;;;;;;0.43;0.43;;;;;;;11.43;54.13;100151.97;5036540;28;20469;-54
2022/04/20 08:18:18;;;;;;;1.03;1.03;;;;;;;11.83;55.02;100156.81;5024809;28;20830;-55
2022/04/20 08:20:44;;;;;;;0.30;0.20;;;;;;;11.85;54.74;100143.44;5023966;28;20460;-54
2022/04/20 08:23:11;;;;;;;0.30;0.20;;;;;;;11.70;54.62;100151.94;5035550;28;20503;-55
2022/04/20 08:25:39;;;;;;;0.40;0.37;;;;;;;11.78;54.85;100147.19;5033070;28;20511;-54
2022/04/20 08:28:06;;;;;;;0.50;0.50;;;;;;;11.83;53.90;100153.28;5027746;28;20464;-54
2022/04/20 08:30:35;;;;;;;2.00;1.13;;;;;;;11.79;53.71;100156.97;5006073;28;20553;-55
2022/04/20 08:33:06;;;;;;;0.30;0.20;;;;;;;11.75;53.88;100148.19;5020142;28;20448;-55
2022/04/20 08:35:36;;;;;;;0.30;0.20;;;;;;;12.36;52.54;100151.28;5023064;28;20505;-56
2022/04/20 08:38:04;;;;;;;0.30;0.20;;;;;;;12.25;51.51;100156.16;5035960;28;20447;-55
2022/04/20 08:40:32;;;;;;;0.30;0.20;;;;;;;12.54;52.96;100156.84;5017046;28;20993;-56
2022/04/20 08:43:02;;;;;;;0.30;0.20;;;;;;;12.97;53.63;100143.53;5035956;28;20481;-57
2022/04/20 08:45:29;;;;;;;0.50;0.50;;;;;;;12.69;52.79;100156.25;5033994;28;20447;-57
2022/04/20 08:47:58;;;;;;;0.80;0.80;;;;;;;12.82;51.54;100143.28;5035323;28;20455;-57
2022/04/20 08:50:25;;;;;;;0.30;0.20;;;;;;;12.29;50.14;100143.56;5035177;28;20995;-57
2022/04/20 08:52:55;;;;;;;0.30;0.20;;;;;;;12.70;51.05;100137.50;5034352;28;20470;-56
2022/04/20 08:55:21;;;;;;;0.30;0.20;;;;;;;12.60;51.00;100143.25;5025985;28;20926;-57
2022/04/20 08:57:50;;;;;;;0.30;0.20;;;;;;;12.95;50.92;100132.06;5034852;28;20455;-57
2022/04/20 09:00:22;;;;;;;0.30;0.20;;;;;;;12.65;48.29;100131.50;5034920;28;20598;-56
2022/04/20 09:02:55;;;;;;;0.30;0.20;;;;;;;13.13;48.49;100137.56;5035240;28;20490;-57
2022/04/20 09:05:24;;;;;;;0.30;0.20;;;;;;;12.67;47.14;100139.44;5034765;28;20474;-56
2022/04/20 09:07:52;;;;;;;0.30;0.20;;;;;;;12.91;48.87;100132.25;5035629;28;20467;-56
2022/04/20 09:10:19;;;;;;;0.60;0.60;;;;;;;12.89;49.07;100131.47;5036050;28;20498;-56
2022/04/20 09:12:47;;;;;;;0.30;0.20;;;;;;;12.94;47.89;100133.00;5034663;28;20936;-56
2022/04/20 09:15:31;;;;;;;0.40;0.30;;;;;;;12.92;45.98;100132.19;5033506;28;20512;-56
2022/04/20 09:18:01;;;;;;;0.30;0.20;;;;;;;13.07;45.62;100129.81;5033176;28;20944;-56
2022/04/20 09:20:28;;;;;;;0.30;0.20;;;;;;;12.69;43.85;100138.44;5021486;28;20469;-56
2022/04/20 09:23:02;;;;;;;0.33;0.23;;;;;;;13.13;43.58;100133.09;5035497;28;20483;-56
2022/04/20 09:25:34;;;;;;;0.30;0.20;;;;;;;13.17;43.61;100126.72;5023434;28;20862;-56
2022/04/20 09:28:03;;;;;;;0.30;0.20;;;;;;;13.24;43.75;100111.31;5024246;28;20451;-56
2022/04/20 09:30:41;;;;;;;0.30;0.20;;;;;;;13.18;42.29;100114.25;5033626;28;20506;-56
2022/04/20 09:33:10;;;;;;;0.30;0.20;;;;;;;13.33;42.98;100125.16;5033376;28;20563;-56
2022/04/20 09:35:46;;;;;;;0.33;0.23;;;;;;;13.37;44.46;100114.34;5033740;28;20852;-56
2022/04/20 09:38:17;;;;;;;0.37;0.30;;;;;;;13.21;44.68;100123.00;5034013;28;20443;-56
2022/04/20 09:40:44;;;;;;;0.30;0.20;;;;;;;13.34;43.34;100107.34;5033275;28;20476;-56
2022/04/20 09:43:19;;;;;;;0.30;0.20;;;;;;;13.27;42.17;100109.38;5033463;28;20949;-56
2022/04/20 09:46:04;;;;;;;0.40;0.40;;;;;;;13.40;44.11;100100.84;5009249;28;20942;-56
2022/04/20 09:51:23;;;;;;;0.43;0.40;;;;;;;13.82;42.23;100095.44;5033377;28;20486;-56
2022/04/20 09:53:50;;;;;;;0.30;0.20;;;;;;;13.99;44.00;100113.41;5007067;28;20472;-56
2022/04/20 09:56:22;;;;;;;0.30;0.20;;;;;;;13.63;43.30;100100.72;5032973;28;20452;-56
2022/04/20 09:59:03;;;;;;;0.43;0.40;;;;;;;13.63;43.43;100096.25;5033021;28;20482;-56
2022/04/20 10:01:35;;;;;;;0.30;0.20;;;;;;;13.77;43.73;100095.66;5032759;28;20472;-56
2022/04/20 10:04:06;;;;;;;0.30;0.20;;;;;;;13.30;42.77;100095.06;5033506;28;20550;-57
2022/04/20 10:06:34;;;;;;;0.30;0.20;;;;;;;13.94;44.22;100092.19;5033189;28;20447;-56
2022/04/20 10:09:01;;;;;;;0.30;0.20;;;;;;;13.91;42.29;100095.88;5032978;28;20487;-56
2022/04/20 10:11:31;;;;;;;0.30;0.20;;;;;;;14.38;41.50;100092.81;5032691;28;21047;-56
2022/04/20 10:16:50;;;;;;;0.30;0.20;;;;;;;14.00;42.83;100086.59;5032915;28;20447;-56
2022/04/20 10:19:37;;;;;;;0.30;0.20;;;;;;;14.40;41.21;100085.59;5029491;28;20519;-56
2022/04/20 10:22:05;;;;;;;0.30;0.20;;;;;;;13.88;41.20;100080.00;5025769;28;20533;-56
2022/04/20 10:24:41;;;;;;;0.30;0.20;;;;;;;14.19;40.90;100075.91;5026354;28;20519;-56
2022/04/20 10:27:18;;;;;;;0.30;0.20;;;;;;;14.67;40.98;100062.03;5022561;28;20452;-56
2022/04/20 10:29:54;;;;;;;0.30;0.20;;;;;;;14.53;40.37;100061.84;5032311;28;20502;-56
2022/04/20 10:32:27;;;;;;;0.30;0.20;;;;;;;14.17;38.84;100059.06;5032241;28;20447;-56
2022/04/20 10:34:54;;;;;;;0.57;0.57;;;;;;;14.52;39.70;100047.56;5032615;28;20517;-56
2022/04/20 10:37:31;;;;;;;0.30;0.20;;;;;;;14.57;39.80;100043.84;5032520;28;20505;-56
2022/04/20 10:40:18;;;;;;;0.30;0.20;;;;;;;14.33;39.04;100048.50;5032181;28;20818;-56
2022/04/20 10:43:18;;;;;;;0.30;0.20;;;;;;;14.38;38.20;100051.81;5033058;28;20538;-56
2022/04/20 10:46:17;;;;;;;0.40;0.30;;;;;;;14.38;38.40;100042.00;5006306;28;20580;-58
2022/04/20 10:48:48;;;;;;;0.40;0.23;;;;;;;14.80;38.06;100043.53;5016900;28;20455;-56
2022/04/20 10:51:16;;;;;;;0.30;0.20;;;;;;;14.66;36.78;100043.34;5031978;28;20479;-56
2022/04/20 10:53:51;;;;;;;0.30;0.20;;;;;;;14.85;38.06;100033.50;5026519;28;20510;-56
2022/04/20 10:56:19;;;;;;;0.80;0.60;;;;;;;14.58;36.77;100034.84;5026607;28;20447;-56
2022/04/20 10:59:04;;;;;;;0.30;0.20;;;;;;;14.48;37.17;100027.28;5031968;28;20856;-56
2022/04/20 11:01:31;;;;;;;0.50;0.47;;;;;;;14.24;36.70;100023.94;5032263;28;20471;-56
2022/04/20 11:03:57;;;;;;;0.30;0.20;;;;;;;14.62;37.53;100021.25;5032276;28;20491;-56
2022/04/20 11:06:28;;;;;;;0.30;0.20;;;;;;;14.87;37.68;100007.50;5032195;28;20714;-56
2022/04/20 11:09:01;;;;;;;0.30;0.20;;;;;;;14.98;38.36;100017.69;5032083;28;20521;-56
2022/04/20 11:20:07;;;;;;;0.33;0.23;;;;;;;15.25;37.21;100008.22;5021838;28;20448;-56
2022/04/20 11:22:44;;;;;;;0.30;0.20;;;;;;;14.88;36.72;100009.25;5028930;28;20451;-56
2022/04/20 11:25:11;;;;;;;0.30;0.23;;;;;;;15.05;36.70;100014.59;5025884;28;20519;-56
2022/04/20 11:27:38;;;;;;;0.70;0.70;;;;;;;14.86;35.83;100000.44;5022068;28;20505;-56
2022/04/20 11:30:06;;;;;;;0.30;0.20;;;;;;;15.11;35.97;100005.41;5031973;28;20456;-56
2022/04/20 11:32:34;;;;;;;0.60;0.60;;;;;;;15.03;35.49;99994.22;5032034;28;20486;-56
2022/04/20 11:35:11;;;;;;;0.40;0.30;;;;;;;15.18;37.03;99988.06;5031748;28;20937;-56
2022/04/20 11:37:39;;;;;;;0.50;0.50;;;;;;;15.53;37.31;99990.69;5001825;28;20444;-56
2022/04/20 11:40:11;;;;;;;0.30;0.20;;;;;;;15.37;36.23;99972.75;5031821;28;20454;-56
2022/04/20 11:42:39;;;;;;;0.30;0.20;;;;;;;15.89;35.99;99977.09;5031817;28;20452;-56
2022/04/20 11:45:06;;;;;;;0.30;0.20;;;;;;;15.49;35.27;99981.06;5031344;28;20522;-56
2022/04/20 11:47:40;;;;;;;1.00;0.77;;;;;;;15.44;35.25;99978.63;5031561;28;20452;-56
2022/04/20 11:50:08;;;;;;;0.30;0.20;;;;;;;15.34;36.98;99990.78;5031454;28;20459;-56
2022/04/20 11:52:36;;;;;;;0.30;0.20;;;;;;;15.66;37.31;99973.91;5031829;28;20470;-56
2022/04/20 11:55:05;;;;;;;0.30;0.20;;;;;;;15.62;38.85;99974.13;5031194;28;20448;-56
2022/04/20 11:57:33;;;;;;;0.30;0.20;;;;;;;15.60;38.11;99970.66;5014019;28;20871;-56
2022/04/20 12:00:00;;;;;;;0.30;0.20;;;;;;;15.63;38.44;99966.03;5031109;28;20483;-56
2022/04/20 12:02:27;;;;;;;0.40;0.30;;;;;;;15.64;37.44;99974.94;5031460;28;21007;-56